Time;durP1;ratioP1;P1;durP2;ratioP2;P2;SDS_P1;SDS_P2;PMS_P1;PMS_P2;Temp;Humidity;BMP_temperature;BMP_pressure;BME280_temperature;BME280_humidity;BME280_pressure;Samples;Min_cycle;Max_cycle;Signal;HPM_P1;HPM_P2
2022/10/11 00:00:47;;;;;;;4.70;1.90;;;9.30;99.90;;;;;;4978467;28;20169;-75
2022/10/11 00:03:13;;;;;;;4.23;1.67;;;9.30;99.90;;;;;;5009443;28;20984;-75
2022/10/11 00:05:39;;;;;;;6.33;1.70;;;9.20;99.90;;;;;;4996864;28;20716;-73
2022/10/11 00:08:05;;;;;;;11.73;2.33;;;9.20;99.90;;;;;;4997398;28;20424;-73
2022/10/11 00:10:32;;;;;;;8.27;2.07;;;9.20;99.90;;;;;;4997928;28;20248;-75
2022/10/11 00:12:58;;;;;;;4.60;1.70;;;9.20;99.90;;;;;;4996045;28;20179;-73
2022/10/11 00:15:23;;;;;;;15.93;2.33;;;9.20;99.90;;;;;;4977700;28;20429;-73
2022/10/11 00:17:49;;;;;;;11.03;2.00;;;9.10;99.90;;;;;;4977702;28;20503;-74
2022/10/11 00:20:16;;;;;;;6.73;1.97;;;9.10;99.90;;;;;;4977656;28;20184;-75
2022/10/11 00:22:42;;;;;;;6.23;2.10;;;9.10;99.90;;;;;;4977160;28;20428;-73
2022/10/11 00:25:09;;;;;;;12.23;2.33;;;9.00;99.90;;;;;;4977442;28;20488;-74
2022/10/11 00:27:35;;;;;;;9.67;2.07;;;9.00;99.90;;;;;;4978201;28;20244;-74
2022/10/11 00:30:01;;;;;;;4.67;1.73;;;8.90;99.90;;;;;;4978154;28;20397;-73
2022/10/11 00:32:27;;;;;;;6.00;2.20;;;8.90;99.90;;;;;;4984616;28;20416;-72
2022/10/11 00:34:54;;;;;;;3.33;1.60;;;8.80;99.90;;;;;;4993617;28;20408;-71
2022/10/11 00:37:20;;;;;;;5.27;1.90;;;8.80;99.90;;;;;;4993908;28;20427;-73
2022/10/11 00:39:46;;;;;;;3.40;1.60;;;8.70;99.90;;;;;;4993992;28;20400;-74
2022/10/11 00:42:14;;;;;;;2.20;1.33;;;8.60;99.90;;;;;;4985818;28;20536;-72
2022/10/11 00:44:45;;;;;;;4.67;1.60;;;8.60;99.90;;;;;;4974047;28;20162;-72
2022/10/11 00:47:18;;;;;;;9.00;1.90;;;8.50;99.90;;;;;;4974072;28;20465;-73
2022/10/11 00:49:56;;;;;;;5.87;2.40;;;8.50;99.90;;;;;;4974173;28;20512;-73
2022/10/11 00:52:36;;;;;;;9.83;2.10;;;8.50;99.90;;;;;;4974178;28;20423;-72
2022/10/11 00:55:06;;;;;;;1.87;1.20;;;8.50;99.90;;;;;;4973767;28;20412;-72
2022/10/11 00:57:39;;;;;;;11.20;2.50;;;8.50;99.90;;;;;;4989235;28;20429;-73
2022/10/11 01:00:11;;;;;;;5.07;2.47;;;8.50;99.90;;;;;;4974241;28;20397;-73
2022/10/11 01:02:38;;;;;;;4.67;2.53;;;8.50;99.90;;;;;;4974042;28;20808;-73
2022/10/11 01:05:05;;;;;;;7.73;2.33;;;8.50;99.90;;;;;;4974971;28;20488;-74
2022/10/11 01:07:32;;;;;;;6.60;2.53;;;8.60;99.90;;;;;;4980199;28;20446;-74
2022/10/11 01:09:57;;;;;;;15.83;3.07;;;8.60;99.90;;;;;;4996433;28;20411;-75
2022/10/11 01:12:25;;;;;;;2.77;2.23;;;8.60;99.90;;;;;;4996909;28;20404;-74
2022/10/11 01:15:10;;;;;;;6.83;3.43;;;8.60;99.90;;;;;;4996737;28;20243;-75
2022/10/11 01:17:42;;;;;;;18.83;6.33;;;8.60;99.90;;;;;;4993742;28;20441;-74
2022/10/11 01:20:30;;;;;;;9.30;5.20;;;8.70;99.90;;;;;;4975819;28;20779;-73
2022/10/11 01:23:27;;;;;;;22.50;6.00;;;8.70;99.90;;;;;;4975696;28;20423;-74
2022/10/11 01:26:31;;;;;;;7.90;3.97;;;8.70;99.90;;;;;;4972562;28;20983;-73
2022/10/11 01:29:14;;;;;;;12.03;5.43;;;8.70;99.90;;;;;;4975272;28;20451;-74
2022/10/11 01:31:55;;;;;;;9.07;4.30;;;8.80;99.90;;;;;;4974557;28;20887;-74
2022/10/11 01:34:45;;;;;;;9.73;5.33;;;8.80;99.90;;;;;;4975116;28;20412;-74
2022/10/11 01:37:33;;;;;;;13.60;5.00;;;8.70;99.90;;;;;;5008414;28;20441;-74
2022/10/11 01:40:31;;;;;;;6.10;3.50;;;8.70;99.90;;;;;;4993933;28;20408;-74
2022/10/11 01:42:57;;;;;;;7.13;4.70;;;8.70;99.90;;;;;;4992866;28;20477;-73
2022/10/11 01:45:24;;;;;;;6.37;4.13;;;8.70;99.90;;;;;;4992546;28;20455;-73
2022/10/11 01:48:04;;;;;;;7.70;3.10;;;8.60;99.90;;;;;;4987104;28;20938;-73
2022/10/11 01:50:37;;;;;;;7.17;4.43;;;8.60;99.90;;;;;;4973368;28;20795;-74
2022/10/11 01:53:18;;;;;;;5.40;3.10;;;8.60;99.90;;;;;;4973252;28;20760;-73
2022/10/11 01:56:08;;;;;;;5.23;3.27;;;8.50;99.90;;;;;;5004336;28;20755;-74
2022/10/11 01:59:01;;;;;;;5.97;4.77;;;8.50;99.90;;;;;;4984107;28;20953;-73
2022/10/11 02:01:26;;;;;;;10.30;3.73;;;8.40;99.90;;;;;;4992673;28;20435;-74
2022/10/11 02:04:08;;;;;;;8.60;4.00;;;8.30;99.90;;;;;;4988009;28;20481;-75
2022/10/11 02:07:17;;;;;;;7.33;3.10;;;8.30;99.90;;;;;;4977660;28;20204;-73
2022/10/11 02:09:57;;;;;;;14.43;4.70;;;8.20;99.90;;;;;;4976606;28;20461;-73
2022/10/11 02:12:55;;;;;;;15.83;3.97;;;8.20;99.90;;;;;;4973303;28;20491;-74
2022/10/11 02:15:22;;;;;;;6.87;4.17;;;8.10;99.90;;;;;;4976207;28;20421;-74
2022/10/11 02:17:52;;;;;;;16.43;3.57;;;8.20;99.90;;;;;;4973064;28;20440;-74
2022/10/11 02:20:22;;;;;;;5.37;3.73;;;8.10;99.90;;;;;;4973355;28;20533;-74
2022/10/11 02:22:52;;;;;;;7.63;3.47;;;8.10;99.90;;;;;;4977035;28;20408;-74
2022/10/11 02:25:23;;;;;;;9.27;3.50;;;8.20;99.90;;;;;;4976811;28;20456;-73
2022/10/11 02:27:52;;;;;;;9.50;3.40;;;8.10;99.90;;;;;;4980892;28;20443;-74
2022/10/11 02:30:18;;;;;;;7.80;2.70;;;8.00;99.90;;;;;;4996359;28;20396;-74
2022/10/11 02:32:46;;;;;;;7.80;3.20;;;8.00;99.90;;;;;;4996283;28;20526;-73
2022/10/11 02:35:12;;;;;;;11.57;3.80;;;8.00;99.90;;;;;;4996098;28;20554;-74
2022/10/11 02:37:51;;;;;;;6.60;3.50;;;8.00;99.90;;;;;;4995674;28;20450;-74
2022/10/11 02:40:29;;;;;;;8.40;3.83;;;7.90;99.90;;;;;;4980208;28;20413;-74
2022/10/11 02:43:16;;;;;;;5.00;3.03;;;8.00;99.90;;;;;;5013000;28;20412;-74
2022/10/11 02:45:53;;;;;;;7.03;3.33;;;8.00;99.90;;;;;;4980742;28;20534;-74
2022/10/11 02:48:19;;;;;;;9.43;3.90;;;8.00;99.90;;;;;;5014819;28;20442;-74
2022/10/11 02:50:45;;;;;;;9.40;3.47;;;8.10;99.90;;;;;;4999090;28;20419;-74
2022/10/11 02:53:11;;;;;;;13.27;9.17;;;8.10;99.90;;;;;;4995889;28;20240;-74
2022/10/11 02:55:36;;;;;;;16.80;9.03;;;8.10;99.90;;;;;;4994196;28;20909;-74
2022/10/11 02:58:03;;;;;;;8.30;4.23;;;8.10;99.90;;;;;;4995195;28;20217;-74
2022/10/11 03:00:29;;;;;;;9.80;4.17;;;8.10;99.90;;;;;;4994510;28;20932;-74
2022/10/11 03:02:54;;;;;;;8.60;3.20;;;8.00;99.90;;;;;;4995568;28;20252;-73
2022/10/11 03:05:20;;;;;;;9.63;4.27;;;8.00;99.90;;;;;;4995247;28;20206;-74
2022/10/11 03:07:45;;;;;;;9.50;3.80;;;8.00;99.90;;;;;;4989902;28;20229;-74
2022/10/11 03:10:11;;;;;;;11.83;4.83;;;7.90;99.90;;;;;;4976131;28;20180;-74
2022/10/11 03:12:36;;;;;;;6.63;3.67;;;7.90;99.90;;;;;;4976424;28;20165;-73
2022/10/11 03:15:03;;;;;;;8.80;5.00;;;7.90;99.90;;;;;;4975751;28;20173;-74
2022/10/11 03:17:28;;;;;;;13.70;6.40;;;7.80;99.90;;;;;;4980690;28;20228;-74
2022/10/11 03:19:54;;;;;;;14.30;7.43;;;7.80;99.90;;;;;;4995327;28;21119;-73
2022/10/11 03:22:20;;;;;;;9.63;5.43;;;7.80;99.90;;;;;;4995229;28;20654;-74
2022/10/11 03:24:45;;;;;;;12.17;4.57;;;7.80;99.90;;;;;;4995097;28;20169;-74
2022/10/11 03:27:11;;;;;;;7.07;3.60;;;7.70;99.90;;;;;;4991878;28;20197;-72
2022/10/11 03:29:36;;;;;;;6.00;3.63;;;7.70;99.90;;;;;;4990724;28;20216;-74
2022/10/11 03:32:02;;;;;;;18.03;3.93;;;7.60;99.90;;;;;;4975279;28;20170;-74
2022/10/11 03:34:28;;;;;;;7.17;4.23;;;7.60;99.90;;;;;;4975187;28;20248;-74
2022/10/11 03:36:53;;;;;;;6.70;2.90;;;7.60;99.90;;;;;;4976878;28;20801;-74
2022/10/11 03:39:19;;;;;;;6.00;3.80;;;7.50;99.90;;;;;;4997701;28;20176;-75
2022/10/11 03:41:44;;;;;;;13.10;4.67;;;7.50;99.90;;;;;;4998991;28;20171;-74
2022/10/11 03:44:10;;;;;;;12.13;4.33;;;7.50;99.90;;;;;;4999189;28;20165;-74
2022/10/11 03:46:35;;;;;;;4.80;3.10;;;7.50;99.90;;;;;;4999417;28;20205;-74
2022/10/11 03:49:01;;;;;;;10.70;5.10;;;7.50;99.90;;;;;;4999339;28;20184;-74
2022/10/11 03:51:26;;;;;;;6.30;3.73;;;7.50;99.90;;;;;;4999878;28;20169;-75
2022/10/11 03:53:52;;;;;;;8.40;4.17;;;7.50;99.90;;;;;;4998162;28;20169;-74
2022/10/11 03:56:18;;;;;;;10.27;4.37;;;7.40;99.90;;;;;;4999845;28;20173;-74
2022/10/11 03:58:43;;;;;;;5.23;3.03;;;7.40;99.90;;;;;;4985305;28;20189;-75
2022/10/11 04:01:09;;;;;;;10.00;4.60;;;7.40;99.90;;;;;;4980249;28;20193;-74
2022/10/11 04:03:34;;;;;;;6.27;2.87;;;7.30;99.90;;;;;;4980985;28;20196;-75
2022/10/11 04:06:00;;;;;;;5.67;3.27;;;7.30;99.90;;;;;;4974818;28;20197;-72
2022/10/11 04:08:26;;;;;;;8.90;3.87;;;7.30;99.90;;;;;;4986905;28;20228;-73
2022/10/11 04:10:51;;;;;;;11.30;3.73;;;7.20;99.90;;;;;;4996573;28;20173;-75
2022/10/11 04:13:17;;;;;;;5.03;3.27;;;7.10;99.90;;;;;;5000167;28;20188;-73
2022/10/11 04:15:42;;;;;;;7.33;5.00;;;7.10;99.90;;;;;;4994086;28;20196;-75
2022/10/11 04:18:08;;;;;;;21.40;7.77;;;7.00;99.90;;;;;;4984584;28;20236;-73
2022/10/11 04:20:34;;;;;;;17.60;6.60;;;7.00;99.90;;;;;;4974959;28;20248;-73
2022/10/11 04:22:59;;;;;;;8.10;4.40;;;7.00;99.90;;;;;;4974935;28;20173;-74
2022/10/11 04:25:25;;;;;;;6.53;3.77;;;7.00;99.90;;;;;;4974533;28;20759;-74
2022/10/11 04:27:50;;;;;;;4.90;3.07;;;7.00;99.90;;;;;;4981362;28;20776;-74
2022/10/11 04:30:16;;;;;;;9.53;4.17;;;7.00;99.90;;;;;;4994128;28;20181;-73
2022/10/11 04:32:42;;;;;;;8.43;3.60;;;7.00;99.90;;;;;;4987410;28;20701;-74
2022/10/11 04:35:07;;;;;;;6.17;3.40;;;7.00;99.90;;;;;;4974129;28;20444;-74
2022/10/11 04:37:33;;;;;;;8.77;3.40;;;6.90;99.90;;;;;;4973317;28;20201;-73
2022/10/11 04:39:59;;;;;;;6.57;3.13;;;6.90;99.90;;;;;;5005813;28;20195;-74
2022/10/11 04:42:24;;;;;;;7.50;2.83;;;6.90;99.90;;;;;;4978316;28;20530;-75
2022/10/11 04:44:50;;;;;;;7.40;3.07;;;6.80;99.90;;;;;;4992501;28;20169;-74
2022/10/11 04:47:15;;;;;;;9.97;3.43;;;6.80;99.90;;;;;;4993711;28;20566;-73
2022/10/11 04:49:41;;;;;;;6.87;3.30;;;6.80;99.90;;;;;;4998041;28;20192;-75
2022/10/11 04:52:06;;;;;;;8.10;3.40;;;6.80;99.90;;;;;;4997457;28;20219;-75
2022/10/11 04:54:32;;;;;;;12.90;3.87;;;6.80;99.90;;;;;;4981204;28;20200;-74
2022/10/11 04:56:57;;;;;;;7.37;4.10;;;6.80;99.90;;;;;;4996078;28;20213;-74
2022/10/11 04:59:23;;;;;;;10.03;4.47;;;6.80;99.90;;;;;;4996057;28;20180;-75
2022/10/11 05:01:48;;;;;;;8.30;5.40;;;6.70;99.90;;;;;;5008913;28;20183;-74
2022/10/11 05:04:14;;;;;;;14.10;6.00;;;6.70;99.90;;;;;;4998860;28;20168;-73
2022/10/11 05:06:39;;;;;;;7.27;4.67;;;6.70;99.90;;;;;;4999160;28;20200;-74
2022/10/11 05:09:05;;;;;;;14.37;4.30;;;6.60;99.90;;;;;;4999441;28;20187;-74
2022/10/11 05:11:30;;;;;;;5.00;2.47;;;6.60;99.90;;;;;;4988218;28;20560;-74
2022/10/11 05:13:56;;;;;;;6.60;3.00;;;6.60;99.90;;;;;;4995951;28;20184;-74
2022/10/11 05:16:22;;;;;;;3.87;3.07;;;6.60;99.90;;;;;;4981358;28;20240;-75
2022/10/11 05:18:48;;;;;;;9.63;4.97;;;6.60;99.90;;;;;;4980897;28;20170;-74
2022/10/11 05:21:25;;;;;;;7.10;3.00;;;6.50;99.90;;;;;;4990039;28;20517;-74
2022/10/11 05:23:52;;;;;;;7.73;3.43;;;6.50;99.90;;;;;;4993191;28;20247;-74
2022/10/11 05:26:18;;;;;;;7.57;3.23;;;6.50;99.90;;;;;;4992983;28;20415;-73
2022/10/11 05:28:44;;;;;;;6.83;2.73;;;6.50;99.90;;;;;;4993110;28;20416;-73
2022/10/11 05:31:10;;;;;;;5.80;2.40;;;6.50;99.90;;;;;;4984833;28;20775;-73
2022/10/11 05:33:36;;;;;;;5.63;3.30;;;6.50;99.90;;;;;;4996173;28;20263;-73
2022/10/11 05:36:02;;;;;;;6.10;2.90;;;6.60;99.90;;;;;;4992680;28;20495;-73
2022/10/11 05:38:27;;;;;;;6.73;3.53;;;6.50;99.90;;;;;;4992890;28;20436;-73
2022/10/11 05:40:53;;;;;;;7.23;3.70;;;6.50;99.90;;;;;;4992285;28;20227;-72
2022/10/11 05:43:19;;;;;;;10.37;2.93;;;6.50;99.90;;;;;;4992713;28;20176;-73
2022/10/11 05:45:45;;;;;;;6.23;3.80;;;6.40;99.90;;;;;;4992487;28;20177;-73
2022/10/11 05:48:11;;;;;;;5.47;3.07;;;6.40;99.90;;;;;;4992784;28;20228;-73
2022/10/11 05:50:38;;;;;;;6.70;3.27;;;6.40;99.90;;;;;;4978542;28;20455;-73
2022/10/11 05:53:04;;;;;;;10.30;3.37;;;6.40;99.90;;;;;;4973488;28;20453;-73
2022/10/11 05:55:37;;;;;;;5.30;3.10;;;6.50;99.90;;;;;;4972692;28;20587;-74
2022/10/11 05:58:03;;;;;;;2.73;2.43;;;6.50;99.90;;;;;;4973523;28;20778;-73
2022/10/11 06:00:28;;;;;;;3.77;2.80;;;6.50;99.90;;;;;;4988040;28;20423;-73
2022/10/11 06:02:54;;;;;;;7.83;3.37;;;6.50;99.90;;;;;;4992755;28;20529;-73
2022/10/11 06:05:19;;;;;;;8.07;2.50;;;6.50;99.90;;;;;;4992489;28;20538;-73
2022/10/11 06:07:45;;;;;;;6.17;3.47;;;6.60;99.90;;;;;;4992527;28;20267;-73
2022/10/11 06:10:11;;;;;;;4.87;2.77;;;6.60;99.90;;;;;;4979781;28;20228;-73
2022/10/11 06:12:37;;;;;;;4.87;2.63;;;6.60;99.90;;;;;;4973156;28;20180;-73
2022/10/11 06:15:03;;;;;;;14.07;3.63;;;6.60;99.90;;;;;;4972766;28;20252;-73
2022/10/11 06:17:29;;;;;;;7.73;3.40;;;6.60;99.90;;;;;;4973388;28;20445;-73
2022/10/11 06:19:54;;;;;;;9.07;3.57;;;6.60;99.90;;;;;;4998575;28;20511;-73
2022/10/11 06:22:20;;;;;;;4.47;2.70;;;6.70;99.90;;;;;;4991238;28;20521;-74
2022/10/11 06:24:45;;;;;;;6.80;3.50;;;6.70;99.90;;;;;;4991930;28;20200;-73
2022/10/11 06:27:11;;;;;;;5.70;3.93;;;6.70;99.90;;;;;;4993465;28;20276;-74
2022/10/11 06:29:37;;;;;;;6.77;2.90;;;6.80;99.90;;;;;;5000162;28;20180;-74
2022/10/11 06:32:02;;;;;;;4.20;3.10;;;6.90;99.90;;;;;;5000330;28;20407;-74
2022/10/11 06:34:28;;;;;;;7.60;3.00;;;6.90;99.90;;;;;;5000544;28;20523;-74
2022/10/11 06:36:53;;;;;;;4.77;3.37;;;7.00;99.90;;;;;;5001001;28;20228;-74
2022/10/11 06:39:19;;;;;;;11.50;3.47;;;7.00;99.90;;;;;;4997033;28;20189;-74
2022/10/11 06:41:45;;;;;;;7.00;3.83;;;7.10;99.90;;;;;;4973617;28;20174;-73
2022/10/11 06:44:11;;;;;;;5.10;3.40;;;7.10;99.90;;;;;;4972733;28;20173;-73
2022/10/11 06:46:37;;;;;;;5.00;3.50;;;7.20;99.90;;;;;;4972685;28;20970;-73
2022/10/11 06:49:03;;;;;;;8.40;3.17;;;7.20;99.90;;;;;;4972880;28;20547;-73
2022/10/11 06:51:29;;;;;;;5.53;3.10;;;7.40;99.90;;;;;;4972769;28;20261;-73
2022/10/11 06:53:57;;;;;;;7.70;3.60;;;7.50;99.90;;;;;;4972759;28;20201;-73
2022/10/11 06:56:24;;;;;;;7.23;3.70;;;7.60;99.90;;;;;;5003720;28;21248;-73
2022/10/11 06:58:50;;;;;;;9.23;3.33;;;7.70;99.90;;;;;;5004334;28;20413;-73
2022/10/11 07:01:17;;;;;;;7.70;4.20;;;7.80;99.90;;;;;;4992055;28;20418;-73
2022/10/11 07:03:44;;;;;;;8.20;3.60;;;7.90;99.90;;;;;;4997405;28;20562;-74
2022/10/11 07:06:13;;;;;;;10.03;5.17;;;8.00;99.90;;;;;;4993028;28;20412;-73
2022/10/11 07:08:39;;;;;;;6.77;3.80;;;8.10;99.90;;;;;;4994166;28;20439;-73
2022/10/11 07:11:12;;;;;;;11.60;5.20;;;8.20;99.90;;;;;;4976969;28;20428;-73
2022/10/11 07:13:39;;;;;;;6.03;3.70;;;8.30;99.90;;;;;;4975971;28;20432;-75
2022/10/11 07:16:08;;;;;;;8.63;4.40;;;8.30;99.90;;;;;;4975701;28;20946;-75
2022/10/11 07:18:34;;;;;;;9.67;4.40;;;8.40;99.90;;;;;;4975541;28;20436;-73
2022/10/11 07:21:10;;;;;;;8.73;4.77;;;8.50;99.90;;;;;;4993147;28;20427;-73
2022/10/11 07:23:36;;;;;;;10.83;3.37;;;8.60;99.90;;;;;;4993912;28;20180;-71
2022/10/11 07:26:02;;;;;;;6.40;3.83;;;8.80;99.90;;;;;;4982824;28;20427;-73
2022/10/11 07:28:29;;;;;;;7.53;3.83;;;8.90;99.90;;;;;;4994445;28;20448;-73
2022/10/11 07:30:56;;;;;;;21.13;5.70;;;8.90;99.90;;;;;;4995246;28;20466;-73
2022/10/11 07:33:22;;;;;;;16.67;10.17;;;9.10;99.90;;;;;;4995219;28;20454;-73
2022/10/11 07:35:48;;;;;;;14.40;8.90;;;9.40;99.90;;;;;;4980480;28;20461;-73
2022/10/11 07:38:14;;;;;;;9.47;5.73;;;9.60;99.90;;;;;;4979018;28;20228;-73
2022/10/11 07:40:42;;;;;;;8.10;5.30;;;9.80;99.90;;;;;;4994009;28;20455;-73
2022/10/11 07:43:08;;;;;;;7.07;5.80;;;9.90;99.90;;;;;;4982763;28;20176;-73
2022/10/11 07:45:36;;;;;;;15.67;5.50;;;10.00;99.90;;;;;;4994750;28;20901;-73
2022/10/11 07:48:02;;;;;;;10.80;5.23;;;10.10;99.90;;;;;;4994788;28;20475;-73
2022/10/11 07:50:28;;;;;;;9.50;5.10;;;10.10;99.90;;;;;;4979492;28;20436;-74
2022/10/11 07:52:53;;;;;;;11.20;4.90;;;10.10;99.90;;;;;;4975332;28;20224;-75
2022/10/11 07:55:19;;;;;;;14.67;5.10;;;10.10;99.90;;;;;;4974945;28;20185;-74
2022/10/11 07:57:44;;;;;;;8.93;5.70;;;10.20;99.90;;;;;;4975247;28;20288;-76
2022/10/11 08:00:10;;;;;;;18.73;5.77;;;10.10;99.90;;;;;;4977463;28;20177;-74
2022/10/11 08:02:36;;;;;;;8.50;5.07;;;10.10;99.90;;;;;;4980385;28;20261;-74
2022/10/11 08:05:02;;;;;;;9.67;5.80;;;10.40;99.90;;;;;;4994080;28;20448;-75
2022/10/11 08:07:28;;;;;;;7.20;4.97;;;10.40;99.90;;;;;;4979586;28;20236;-75
2022/10/11 08:09:54;;;;;;;8.70;5.03;;;10.60;99.90;;;;;;5008429;28;20531;-75
2022/10/11 08:12:20;;;;;;;9.97;6.10;;;10.60;99.90;;;;;;4997496;28;20476;-74
2022/10/11 08:14:46;;;;;;;10.57;5.13;;;10.80;99.90;;;;;;5000645;28;20436;-75
2022/10/11 08:17:13;;;;;;;12.13;5.27;;;10.90;99.90;;;;;;4996184;28;20232;-75
2022/10/11 08:19:38;;;;;;;8.67;6.10;;;11.10;99.90;;;;;;4996545;28;20177;-74
2022/10/11 08:22:04;;;;;;;12.50;6.80;;;11.10;99.90;;;;;;4992808;28;20427;-74
2022/10/11 08:24:29;;;;;;;10.50;6.40;;;11.10;99.90;;;;;;4993885;28;20192;-73
2022/10/11 08:26:55;;;;;;;13.33;7.37;;;11.30;99.90;;;;;;4989587;28;20251;-73
2022/10/11 08:29:21;;;;;;;10.87;7.20;;;11.40;99.90;;;;;;4985811;28;20606;-73
2022/10/11 08:31:46;;;;;;;10.10;6.30;;;11.30;99.90;;;;;;4981852;28;20185;-73
2022/10/11 08:34:12;;;;;;;10.77;7.50;;;11.30;99.90;;;;;;4974432;28;20180;-73
2022/10/11 08:36:38;;;;;;;14.33;6.77;;;11.40;99.90;;;;;;4982922;28;20209;-73
2022/10/11 08:39:06;;;;;;;11.60;7.43;;;11.50;99.90;;;;;;4992015;28;21111;-73
2022/10/11 08:41:42;;;;;;;23.40;9.67;;;11.60;99.90;;;;;;4993861;28;20492;-73
2022/10/11 08:44:26;;;;;;;11.70;7.53;;;11.70;99.90;;;;;;4992550;28;20469;-73
2022/10/11 08:46:59;;;;;;;13.57;7.20;;;11.60;99.90;;;;;;4993823;28;20474;-73
2022/10/11 08:49:28;;;;;;;15.63;7.43;;;11.40;99.90;;;;;;4993137;28;20474;-73
2022/10/11 08:52:11;;;;;;;17.20;10.50;;;11.40;99.90;;;;;;4993602;28;20918;-73
2022/10/11 08:54:43;;;;;;;18.17;9.60;;;11.30;99.90;;;;;;4993054;28;20420;-72
2022/10/11 08:57:14;;;;;;;14.00;10.37;;;11.50;99.90;;;;;;4993515;28;20460;-73
2022/10/11 08:59:45;;;;;;;12.27;8.57;;;11.60;99.90;;;;;;4992114;28;20778;-73
2022/10/11 09:02:29;;;;;;;15.77;8.00;;;11.70;99.90;;;;;;4992926;28;20427;-72
2022/10/11 09:04:55;;;;;;;16.30;8.43;;;11.80;99.90;;;;;;4992944;28;20454;-72
2022/10/11 09:07:33;;;;;;;21.10;10.67;;;11.80;99.90;;;;;;4988254;28;20493;-72
2022/10/11 09:10:07;;;;;;;18.60;9.03;;;12.10;99.90;;;;;;4974178;28;20192;-73
2022/10/11 09:12:45;;;;;;;17.83;10.20;;;12.30;99.90;;;;;;4979161;28;20431;-73
2022/10/11 09:15:19;;;;;;;12.50;9.20;;;12.60;99.90;;;;;;4992468;28;20420;-73
2022/10/11 09:17:53;;;;;;;21.70;10.80;;;12.70;99.90;;;;;;4993085;28;20793;-72
2022/10/11 09:20:40;;;;;;;18.50;10.23;;;12.70;99.90;;;;;;4992892;28;21168;-74
2022/10/11 09:23:15;;;;;;;23.03;10.67;;;12.60;99.90;;;;;;4991926;28;20836;-74
2022/10/11 09:25:57;;;;;;;12.23;7.73;;;12.50;99.90;;;;;;4993105;28;20921;-74
2022/10/11 09:28:44;;;;;;;15.10;10.27;;;12.50;99.90;;;;;;4978234;28;20494;-74
2022/10/11 09:31:10;;;;;;;17.60;10.53;;;12.60;99.90;;;;;;4973443;28;20511;-72
2022/10/11 09:33:46;;;;;;;24.33;11.87;;;12.70;99.90;;;;;;4973557;28;20416;-73
2022/10/11 09:36:39;;;;;;;19.73;12.67;;;12.60;99.90;;;;;;4973196;28;20448;-73
2022/10/11 09:39:30;;;;;;;20.93;13.33;;;12.60;99.90;;;;;;4977503;28;20895;-74
2022/10/11 09:41:59;;;;;;;22.60;13.53;;;12.80;99.90;;;;;;4992378;28;20405;-73
2022/10/11 09:44:32;;;;;;;24.67;14.17;;;12.90;99.90;;;;;;4991751;28;20420;-73
2022/10/11 09:46:58;;;;;;;28.33;16.67;;;13.00;99.90;;;;;;4992811;28;20427;-72
2022/10/11 09:49:31;;;;;;;32.57;17.37;;;13.20;99.90;;;;;;4992062;28;20970;-73
2022/10/11 09:51:59;;;;;;;29.63;15.67;;;13.30;99.90;;;;;;4985521;28;20209;-73
2022/10/11 09:54:43;;;;;;;25.90;17.30;;;13.40;99.90;;;;;;4980585;28;20447;-73
2022/10/11 09:57:22;;;;;;;37.10;17.83;;;13.50;99.90;;;;;;4987927;28;20821;-72
2022/10/11 10:00:03;;;;;;;34.33;19.10;;;13.60;99.90;;;;;;4973302;28;20397;-72
2022/10/11 10:02:37;;;;;;;36.40;18.37;;;13.50;99.90;;;;;;4974746;28;20421;-73
2022/10/11 10:05:05;;;;;;;26.03;16.80;;;13.40;99.90;;;;;;4992112;28;20416;-72
2022/10/11 10:07:32;;;;;;;34.43;20.03;;;13.60;99.90;;;;;;4992832;28;20440;-74
2022/10/11 10:10:05;;;;;;;33.53;18.73;;;13.50;99.90;;;;;;4992466;28;20447;-74
2022/10/11 10:12:31;;;;;;;46.13;20.17;;;13.40;99.90;;;;;;4991476;28;20424;-74
2022/10/11 10:15:16;;;;;;;42.77;16.87;;;13.40;99.90;;;;;;4976482;28;20758;-74
2022/10/11 10:17:51;;;;;;;40.13;18.50;;;13.50;99.90;;;;;;4973601;28;20236;-74
2022/10/11 10:20:21;;;;;;;28.90;15.13;;;13.50;99.90;;;;;;4972379;28;20505;-73
2022/10/11 10:22:47;;;;;;;35.80;16.80;;;13.70;99.90;;;;;;4974291;28;20977;-74
2022/10/11 10:25:29;;;;;;;38.43;17.17;;;13.70;99.90;;;;;;4992314;28;20491;-74
2022/10/11 10:27:57;;;;;;;27.67;16.37;;;13.80;99.90;;;;;;4973467;28;20789;-75
2022/10/11 10:30:23;;;;;;;34.20;18.50;;;14.10;99.90;;;;;;4973760;28;20393;-74
2022/10/11 10:32:59;;;;;;;34.20;18.60;;;14.20;99.90;;;;;;4973448;28;21076;-73
2022/10/11 10:35:44;;;;;;;32.47;16.27;;;14.20;99.90;;;;;;4972660;28;20456;-73
2022/10/11 10:38:24;;;;;;;31.40;18.47;;;14.40;99.90;;;;;;4980994;28;20432;-73
2022/10/11 10:40:55;;;;;;;32.70;17.57;;;14.80;99.90;;;;;;4987692;28;20495;-74
2022/10/11 10:43:23;;;;;;;32.40;17.90;;;15.40;99.90;;;;;;4983608;28;20483;-74
2022/10/11 10:46:11;;;;;;;32.97;17.33;;;15.80;99.90;;;;;;4991841;28;20423;-74
2022/10/11 10:49:01;;;;;;;32.77;17.63;;;16.10;99.90;;;;;;4991422;28;20452;-74
2022/10/11 10:51:39;;;;;;;29.40;16.77;;;16.40;99.90;;;;;;4994309;28;20419;-73
2022/10/11 10:54:21;;;;;;;27.80;15.77;;;16.80;99.90;;;;;;4982090;28;20420;-74
2022/10/11 10:56:57;;;;;;;33.10;16.37;;;17.70;99.90;;;;;;4977463;28;20456;-73
2022/10/11 10:59:56;;;;;;;24.90;14.50;;;19.50;99.90;;;;;;4991705;28;20424;-72
2022/10/11 11:02:42;;;;;;;22.70;13.20;;;21.70;99.90;;;;;;4976385;28;20470;-73
2022/10/11 11:05:31;;;;;;;23.30;13.53;;;23.70;99.90;;;;;;4976158;28;20981;-73
2022/10/11 11:07:59;;;;;;;30.50;13.87;;;25.90;90.80;;;;;;4976583;28;20419;-73
2022/10/11 11:10:37;;;;;;;28.70;15.23;;;27.60;71.90;;;;;;4976571;28;20401;-74
2022/10/11 11:13:17;;;;;;;23.10;14.87;;;29.20;64.80;;;;;;4976578;28;20413;-72
2022/10/11 11:16:00;;;;;;;20.17;12.93;;;30.80;57.50;;;;;;4979569;28;20456;-72
2022/10/11 11:18:56;;;;;;;17.03;13.10;;;31.90;53.30;;;;;;4975716;28;20420;-72
2022/10/11 11:21:29;;;;;;;21.53;13.63;;;33.30;50.40;;;;;;4977285;28;20409;-73
2022/10/11 11:23:54;;;;;;;19.97;14.50;;;34.20;46.80;;;;;;4991299;28;20481;-73
2022/10/11 11:26:25;;;;;;;19.27;12.47;;;34.70;44.30;;;;;;4995682;28;20806;-74
2022/10/11 11:29:18;;;;;;;17.40;11.60;;;35.60;43.10;;;;;;4995376;28;20703;-72
2022/10/11 11:31:59;;;;;;;15.53;11.20;;;35.80;41.70;;;;;;4993678;28;20424;-73
2022/10/11 11:34:27;;;;;;;16.30;9.93;;;36.20;40.80;;;;;;4994559;28;20414;-73
2022/10/11 11:36:58;;;;;;;18.43;11.97;;;36.80;40.30;;;;;;4994609;28;20491;-72
2022/10/11 11:39:29;;;;;;;15.23;10.00;;;37.20;39.50;;;;;;4994993;28;20408;-71
2022/10/11 11:42:06;;;;;;;15.73;8.73;;;37.20;39.00;;;;;;4994392;28;20403;-73
2022/10/11 11:44:37;;;;;;;9.23;6.60;;;37.30;38.00;;;;;;4992796;28;20842;-73
2022/10/11 11:47:12;;;;;;;12.80;7.50;;;36.70;36.90;;;;;;4992940;28;20463;-73
2022/10/11 11:49:43;;;;;;;12.63;8.87;;;36.80;37.20;;;;;;5009128;28;20779;-73
2022/10/11 11:52:22;;;;;;;14.60;7.67;;;37.20;37.00;;;;;;4994313;28;20802;-74
2022/10/11 11:55:00;;;;;;;11.10;5.77;;;37.30;36.60;;;;;;4993606;28;20416;-72
2022/10/11 11:57:50;;;;;;;12.07;5.87;;;38.20;37.10;;;;;;4992931;28;20482;-72
2022/10/11 12:00:22;;;;;;;8.27;5.60;;;38.50;36.40;;;;;;4975140;28;20488;-72
2022/10/11 12:03:01;;;;;;;8.53;5.33;;;38.70;36.00;;;;;;4973099;28;20761;-72
2022/10/11 12:05:31;;;;;;;7.20;4.63;;;39.40;35.50;;;;;;4973178;28;20755;-72
2022/10/11 12:08:04;;;;;;;5.90;4.57;;;39.50;34.40;;;;;;4974830;28;20421;-73
2022/10/11 12:11:00;;;;;;;6.80;4.43;;;39.00;33.70;;;;;;4975050;28;20929;-74
2022/10/11 12:13:26;;;;;;;7.27;3.93;;;39.10;34.00;;;;;;4975276;28;20431;-74
2022/10/11 12:16:12;;;;;;;7.27;3.47;;;39.60;34.30;;;;;;4993350;28;20450;-73
2022/10/11 12:18:48;;;;;;;8.73;3.80;;;40.10;33.10;;;;;;4994057;28;20191;-73
2022/10/11 12:21:29;;;;;;;8.03;4.30;;;39.80;31.10;;;;;;4979996;28;20399;-73
2022/10/11 12:23:56;;;;;;;7.53;3.90;;;38.30;32.00;;;;;;4977178;28;20447;-73
2022/10/11 12:26:28;;;;;;;3.80;2.87;;;38.10;33.90;;;;;;4993461;28;20864;-74
2022/10/11 12:29:02;;;;;;;6.27;3.43;;;38.40;33.10;;;;;;4990862;28;20416;-74
2022/10/11 12:31:34;;;;;;;6.00;3.50;;;38.70;32.50;;;;;;4992598;28;20474;-74
2022/10/11 12:33:59;;;;;;;6.47;3.10;;;39.30;31.80;;;;;;4994058;28;20903;-73
2022/10/11 12:36:31;;;;;;;3.87;1.87;;;39.50;30.10;;;;;;4992932;28;20391;-73
2022/10/11 12:39:18;;;;;;;4.80;2.67;;;39.60;29.30;;;;;;4993687;28;20169;-73
2022/10/11 12:41:49;;;;;;;8.13;3.33;;;40.00;29.60;;;;;;5008666;28;20426;-73
2022/10/11 12:44:17;;;;;;;5.13;3.13;;;40.10;29.20;;;;;;4979542;28;20392;-76
2022/10/11 12:46:49;;;;;;;6.40;3.07;;;39.90;29.10;;;;;;4992216;28;20463;-74
2022/10/11 12:49:32;;;;;;;3.73;2.07;;;40.00;29.00;;;;;;4978995;28;20912;-72
2022/10/11 12:52:15;;;;;;;4.63;3.00;;;40.00;28.80;;;;;;4974432;28;20464;-73
2022/10/11 12:55:06;;;;;;;8.53;3.30;;;39.70;28.90;;;;;;4973878;28;20784;-72
2022/10/11 12:57:40;;;;;;;4.90;3.23;;;39.40;29.00;;;;;;4974018;28;20452;-72
2022/10/11 13:00:30;;;;;;;5.70;3.73;;;39.10;29.10;;;;;;4983113;28;20498;-73
2022/10/11 13:02:59;;;;;;;6.80;4.10;;;39.20;29.40;;;;;;4973744;28;20424;-74
2022/10/11 13:05:41;;;;;;;5.93;3.73;;;39.10;29.70;;;;;;4987543;28;20398;-73